Time;durP1;ratioP1;P1;durP2;ratioP2;P2;SDS_P1;SDS_P2;PMS_P1;PMS_P2;Temp;Humidity;BMP_temperature;BMP_pressure;BME280_temperature;BME280_humidity;BME280_pressure;Samples;Min_cycle;Max_cycle;Signal;HPM_P1;HPM_P2
2022/08/18 00:00:13;;;;;;;;;;;23.40;71.10;;;;;;6096896;23;923;-66
2022/08/18 00:02:38;;;;;;;;;;;23.40;71.10;;;;;;6095865;23;1935;-66
2022/08/18 00:05:04;;;;;;;;;;;23.40;71.10;;;;;;6097199;23;932;-67
2022/08/18 00:07:30;;;;;;;;;;;23.40;71.10;;;;;;6070277;23;1150;-65
2022/08/18 00:09:57;;;;;;;;;;;23.40;71.10;;;;;;6095001;23;809;-65
2022/08/18 00:12:24;;;;;;;;;;;23.40;71.10;;;;;;6096626;23;1192;-65
2022/08/18 00:14:49;;;;;;;;;;;23.40;71.10;;;;;;6097532;23;823;-65
2022/08/18 00:17:15;;;;;;;;;;;23.40;71.10;;;;;;6097341;23;721;-65
2022/08/18 00:19:41;;;;;;;;;;;23.40;71.10;;;;;;6096246;23;1102;-65
2022/08/18 00:22:06;;;;;;;;;;;23.40;71.10;;;;;;6096518;23;1877;-65
2022/08/18 00:24:32;;;;;;;;;;;23.40;71.20;;;;;;6095160;23;1003;-65
2022/08/18 00:26:57;;;;;;;;;;;23.40;71.10;;;;;;6096277;23;1395;-65
2022/08/18 00:29:23;;;;;;;;;;;23.40;71.10;;;;;;6096854;23;1058;-65
2022/08/18 00:31:48;;;;;;;;;;;23.40;71.10;;;;;;6095453;23;1197;-65
2022/08/18 00:34:14;;;;;;;;;;;23.40;71.20;;;;;;6096722;23;1058;-65
2022/08/18 00:36:40;;;;;;;;;;;23.40;71.10;;;;;;6096165;23;1018;-66
2022/08/18 00:39:05;;;;;;;;;;;23.40;71.10;;;;;;6097035;23;820;-65
2022/08/18 00:41:31;;;;;;;;;;;23.40;71.20;;;;;;6097220;23;1881;-65
2022/08/18 00:43:59;;;;;;;;;;;23.40;71.20;;;;;;6096457;23;797;-65
2022/08/18 00:46:26;;;;;;;;;;;23.40;71.10;;;;;;6096234;23;911;-65
2022/08/18 00:48:52;;;;;;;;;;;23.40;71.10;;;;;;6096943;23;868;-66
2022/08/18 00:51:17;;;;;;;;;;;23.40;71.10;;;;;;6096850;23;1280;-65
2022/08/18 00:53:48;;;;;;;;;;;23.40;71.20;;;;;;6096624;23;883;-65
2022/08/18 00:56:15;;;;;;;;;;;23.40;71.20;;;;;;6094423;23;828;-65
2022/08/18 00:58:45;;;;;;;;;;;23.40;71.10;;;;;;6095666;23;829;-65
2022/08/18 01:01:11;;;;;;;;;;;23.40;71.10;;;;;;6096528;23;1901;-65
2022/08/18 01:03:38;;;;;;;;;;;23.40;71.10;;;;;;6096702;23;772;-65
2022/08/18 01:06:17;;;;;;;;;;;23.40;71.20;;;;;;6094373;23;782;-66
2022/08/18 01:08:43;;;;;;;;;;;23.40;71.20;;;;;;6095148;23;1040;-65
2022/08/18 01:11:09;;;;;;;;;;;23.40;71.20;;;;;;6096479;23;1149;-66
2022/08/18 01:13:34;;;;;;;;;;;23.40;71.20;;;;;;6096790;23;840;-65
2022/08/18 01:21:49;;;;;;;;;;;23.40;71.10;;;;;;6095804;23;916;-63
2022/08/18 01:24:14;;;;;;;;;;;23.40;71.20;;;;;;6095248;23;1692;-65
2022/08/18 01:26:48;;;;;;;;;;;23.40;71.20;;;;;;6093692;23;852;-65
2022/08/18 01:29:14;;;;;;;;;;;23.40;71.20;;;;;;6095786;23;846;-65
2022/08/18 01:31:41;;;;;;;;;;;23.40;71.20;;;;;;6096403;23;1272;-65
2022/08/18 01:34:07;;;;;;;;;;;23.40;71.20;;;;;;6095136;23;858;-65
2022/08/18 01:36:35;;;;;;;;;;;23.40;71.20;;;;;;6095950;23;811;-65
2022/08/18 01:39:01;;;;;;;;;;;23.40;71.20;;;;;;6094537;23;797;-65
2022/08/18 01:41:26;;;;;;;;;;;23.30;71.20;;;;;;6095415;23;1935;-65
2022/08/18 01:43:52;;;;;;;;;;;23.40;71.20;;;;;;6096217;23;849;-65
2022/08/18 01:46:18;;;;;;;;;;;23.40;71.20;;;;;;6095703;23;825;-65
2022/08/18 01:48:44;;;;;;;;;;;23.40;71.20;;;;;;6096843;23;844;-65
2022/08/18 01:51:11;;;;;;;;;;;23.40;71.20;;;;;;6093976;23;1268;-66
2022/08/18 01:53:37;;;;;;;;;;;23.40;71.20;;;;;;6095063;23;875;-66
2022/08/18 01:56:05;;;;;;;;;;;23.40;71.20;;;;;;6094188;23;789;-65
2022/08/18 01:58:31;;;;;;;;;;;23.40;71.20;;;;;;6094046;23;939;-66
2022/08/18 02:00:57;;;;;;;;;;;23.40;71.20;;;;;;6094811;23;1015;-65
2022/08/18 02:03:33;;;;;;;;;;;23.40;71.20;;;;;;6095101;23;1968;-66
2022/08/18 02:05:59;;;;;;;;;;;23.30;71.20;;;;;;6094627;23;836;-66
2022/08/18 02:08:25;;;;;;;;;;;23.40;71.20;;;;;;6096411;23;1003;-66
2022/08/18 02:10:50;;;;;;;;;;;23.40;71.20;;;;;;6096123;23;1038;-66
2022/08/18 02:13:16;;;;;;;;;;;23.30;71.20;;;;;;6096172;23;1311;-66
2022/08/18 02:15:41;;;;;;;;;;;23.40;71.20;;;;;;6094171;23;837;-66
2022/08/18 02:18:12;;;;;;;;;;;23.40;71.30;;;;;;6096879;23;888;-66
2022/08/18 02:20:37;;;;;;;;;;;23.40;71.30;;;;;;6071032;23;1436;-66
2022/08/18 02:23:03;;;;;;;;;;;23.40;71.20;;;;;;6096137;23;1932;-66
2022/08/18 02:25:28;;;;;;;;;;;23.40;71.30;;;;;;6096221;23;797;-66
2022/08/18 02:27:53;;;;;;;;;;;23.40;71.30;;;;;;6097939;23;1031;-65
2022/08/18 02:30:19;;;;;;;;;;;23.40;72.00;;;;;;6096741;23;1458;-66
2022/08/18 02:32:44;;;;;;;;;;;23.30;71.20;;;;;;6098098;23;1208;-66
2022/08/18 02:35:10;;;;;;;;;;;23.40;71.30;;;;;;6097952;23;762;-65
2022/08/18 02:37:36;;;;;;;;;;;23.40;71.20;;;;;;6096669;23;829;-66
2022/08/18 02:40:02;;;;;;;;;;;23.40;71.30;;;;;;6098394;23;801;-66
2022/08/18 02:42:27;;;;;;;;;;;23.40;71.30;;;;;;6098135;23;1893;-65
2022/08/18 02:44:52;;;;;;;;;;;23.40;71.30;;;;;;6096002;23;1059;-65
2022/08/18 02:47:19;;;;;;;;;;;23.40;71.30;;;;;;6096222;23;1027;-66
2022/08/18 02:49:44;;;;;;;;;;;23.40;71.30;;;;;;6098462;23;935;-65
2022/08/18 02:52:10;;;;;;;;;;;23.40;71.40;;;;;;6097447;23;1650;-66
2022/08/18 02:54:35;;;;;;;;;;;23.40;71.30;;;;;;6098181;23;927;-66
2022/08/18 02:57:04;;;;;;;;;;;23.40;71.30;;;;;;6097837;23;1017;-66
2022/08/18 02:59:30;;;;;;;;;;;23.30;71.30;;;;;;6098210;23;830;-66
2022/08/18 03:04:50;;;;;;;;;;;23.30;71.30;;;;;;6078853;23;1020;-66
2022/08/18 03:07:16;;;;;;;;;;;23.40;71.30;;;;;;6097489;23;915;-66
2022/08/18 03:09:42;;;;;;;;;;;23.40;71.30;;;;;;6098413;23;837;-66
2022/08/18 03:12:07;;;;;;;;;;;23.40;71.30;;;;;;6098427;23;1295;-66
2022/08/18 03:14:33;;;;;;;;;;;23.30;71.30;;;;;;6096566;23;931;-66
2022/08/18 03:16:58;;;;;;;;;;;23.40;71.40;;;;;;6096622;23;880;-66
2022/08/18 03:19:24;;;;;;;;;;;23.40;71.40;;;;;;6097856;23;1050;-66
2022/08/18 03:21:51;;;;;;;;;;;23.40;71.40;;;;;;6096353;23;1885;-66
2022/08/18 03:24:17;;;;;;;;;;;23.40;71.40;;;;;;6097716;23;894;-66
2022/08/18 03:26:43;;;;;;;;;;;23.40;71.40;;;;;;6097279;23;1233;-66
2022/08/18 03:29:09;;;;;;;;;;;23.30;71.30;;;;;;6097727;23;1281;-66
2022/08/18 03:31:37;;;;;;;;;;;23.40;71.40;;;;;;6095918;23;1244;-66
2022/08/18 03:34:02;;;;;;;;;;;23.40;71.40;;;;;;6096406;23;770;-66
2022/08/18 03:36:30;;;;;;;;;;;23.30;72.10;;;;;;6097749;23;978;-66
2022/08/18 03:38:56;;;;;;;;;;;23.30;71.30;;;;;;6097278;23;899;-67
2022/08/18 03:41:22;;;;;;;;;;;23.40;71.40;;;;;;6095993;23;1924;-67
2022/08/18 03:43:48;;;;;;;;;;;23.30;71.30;;;;;;6097613;23;847;-67
2022/08/18 03:46:14;;;;;;;;;;;23.30;71.40;;;;;;6094970;23;797;-67
2022/08/18 03:48:39;;;;;;;;;;;23.30;71.30;;;;;;6097797;23;872;-67
2022/08/18 03:53:59;;;;;;;;;;;23.40;71.40;;;;;;6125749;23;1830;-66
2022/08/18 03:56:25;;;;;;;;;;;23.40;71.40;;;;;;6125308;23;918;-66
2022/08/18 03:58:52;;;;;;;;;;;23.30;71.30;;;;;;6126575;23;809;-66
2022/08/18 04:01:18;;;;;;;;;;;23.40;71.40;;;;;;6126332;23;1886;-66
2022/08/18 04:03:44;;;;;;;;;;;23.30;71.40;;;;;;6126586;23;1261;-66
2022/08/18 04:06:17;;;;;;;;;;;23.30;71.40;;;;;;6126278;23;785;-66
2022/08/18 04:08:43;;;;;;;;;;;23.30;71.40;;;;;;6100918;23;855;-67
2022/08/18 04:11:09;;;;;;;;;;;23.30;71.40;;;;;;6126102;23;844;-67
2022/08/18 04:13:36;;;;;;;;;;;23.40;71.40;;;;;;6126258;23;1183;-67
2022/08/18 04:16:01;;;;;;;;;;;23.30;71.40;;;;;;6100115;23;844;-67
2022/08/18 04:18:27;;;;;;;;;;;23.30;71.40;;;;;;6126645;23;884;-67
2022/08/18 04:20:52;;;;;;;;;;;23.30;71.40;;;;;;6126575;23;843;-67
2022/08/18 04:23:18;;;;;;;;;;;23.30;71.40;;;;;;6126276;23;2220;-68
2022/08/18 04:25:43;;;;;;;;;;;23.40;71.50;;;;;;6125301;23;837;-67
2022/08/18 04:28:08;;;;;;;;;;;23.30;71.40;;;;;;6126746;23;808;-67
2022/08/18 04:30:35;;;;;;;;;;;23.30;71.40;;;;;;6125612;23;840;-67
2022/08/18 04:33:01;;;;;;;;;;;23.40;71.50;;;;;;6100421;23;1205;-67
2022/08/18 04:35:28;;;;;;;;;;;23.30;71.50;;;;;;6099967;23;808;-67
2022/08/18 04:37:53;;;;;;;;;;;23.30;71.40;;;;;;6126310;23;828;-67
2022/08/18 04:40:19;;;;;;;;;;;23.30;71.40;;;;;;6125670;23;1018;-67
2022/08/18 04:42:44;;;;;;;;;;;23.40;71.50;;;;;;6126139;23;1897;-67
2022/08/18 04:45:10;;;;;;;;;;;23.30;72.20;;;;;;6125793;23;1057;-67
2022/08/18 04:47:40;;;;;;;;;;;23.30;71.50;;;;;;6099613;23;996;-66
2022/08/18 04:50:06;;;;;;;;;;;23.30;71.40;;;;;;6126650;23;793;-66
2022/08/18 04:55:15;;;;;;;;;;;23.30;71.40;;;;;;6126295;23;599;-66
2022/08/18 04:57:41;;;;;;;;;;;23.30;71.40;;;;;;6125449;23;990;-66
2022/08/18 05:00:07;;;;;;;;;;;23.30;71.40;;;;;;6125565;23;844;-66
2022/08/18 05:02:33;;;;;;;;;;;23.30;71.40;;;;;;6100123;23;1902;-66
2022/08/18 05:05:00;;;;;;;;;;;23.40;71.50;;;;;;6100215;23;805;-66
2022/08/18 05:07:25;;;;;;;;;;;23.30;71.50;;;;;;6075147;23;829;-66
2022/08/18 05:09:52;;;;;;;;;;;23.30;71.50;;;;;;6126179;23;801;-68
2022/08/18 05:12:18;;;;;;;;;;;23.30;71.50;;;;;;6100723;23;1202;-67
2022/08/18 05:14:43;;;;;;;;;;;23.40;71.60;;;;;;6125810;23;797;-67
2022/08/18 05:17:09;;;;;;;;;;;23.30;71.50;;;;;;6125039;23;1046;-67
2022/08/18 05:19:34;;;;;;;;;;;23.30;71.50;;;;;;6099979;23;1229;-67
2022/08/18 05:22:00;;;;;;;;;;;23.30;71.50;;;;;;6125411;23;1921;-67
2022/08/18 05:24:26;;;;;;;;;;;23.30;71.50;;;;;;6100021;23;817;-67
2022/08/18 05:26:52;;;;;;;;;;;23.30;71.50;;;;;;6075235;23;1168;-66
2022/08/18 05:29:20;;;;;;;;;;;23.30;71.50;;;;;;6100089;23;888;-66
2022/08/18 05:31:45;;;;;;;;;;;23.30;71.40;;;;;;6125263;23;1271;-66
2022/08/18 05:34:11;;;;;;;;;;;23.30;71.50;;;;;;6126088;23;888;-66
2022/08/18 05:36:49;;;;;;;;;;;23.40;71.50;;;;;;6124907;23;1010;-66
2022/08/18 05:39:17;;;;;;;;;;;23.30;71.40;;;;;;6125362;23;695;-67
2022/08/18 05:41:43;;;;;;;;;;;23.30;71.50;;;;;;6125249;23;1938;-66
2022/08/18 05:44:13;;;;;;;;;;;23.30;71.50;;;;;;6125773;23;800;-66
2022/08/18 05:46:46;;;;;;;;;;;23.40;71.60;;;;;;6099350;23;922;-68
2022/08/18 05:49:12;;;;;;;;;;;23.30;71.50;;;;;;6125617;23;836;-67
2022/08/18 05:51:39;;;;;;;;;;;23.30;71.50;;;;;;6099563;23;1188;-67
2022/08/18 05:56:48;;;;;;;;;;;23.30;71.50;;;;;;6103172;23;614;-67
2022/08/18 05:59:19;;;;;;;;;;;23.30;71.50;;;;;;6125726;23;797;-67
2022/08/18 06:01:45;;;;;;;;;;;23.30;71.50;;;;;;6098876;23;1939;-66
2022/08/18 06:04:18;;;;;;;;;;;23.30;71.50;;;;;;6099446;23;1018;-66
2022/08/18 06:06:44;;;;;;;;;;;23.40;71.60;;;;;;6099263;23;856;-67
2022/08/18 06:09:10;;;;;;;;;;;23.30;71.50;;;;;;6125504;23;816;-67
2022/08/18 06:11:35;;;;;;;;;;;23.30;71.50;;;;;;6125273;23;1213;-66
2022/08/18 06:14:00;;;;;;;;;;;23.30;71.60;;;;;;6099510;23;852;-67
2022/08/18 06:16:45;;;;;;;;;;;23.30;71.50;;;;;;6098799;23;1006;-66
2022/08/18 06:19:21;;;;;;;;;;;23.30;71.50;;;;;;6125993;23;796;-66
2022/08/18 06:21:49;;;;;;;;;;;23.30;71.50;;;;;;6099598;23;1893;-66
2022/08/18 06:24:18;;;;;;;;;;;23.30;71.50;;;;;;6099429;23;880;-66
2022/08/18 06:26:46;;;;;;;;;;;23.30;71.60;;;;;;6124789;23;979;-66
2022/08/18 06:29:20;;;;;;;;;;;23.40;71.60;;;;;;6125324;23;975;-66
2022/08/18 06:32:05;;;;;;;;;;;23.30;71.60;;;;;;6099987;23;1274;-66
2022/08/18 06:34:41;;;;;;;;;;;23.30;71.60;;;;;;6099675;23;1027;-66
2022/08/18 06:37:11;;;;;;;;;;;23.30;72.40;;;;;;6098752;23;1022;-66
2022/08/18 06:39:47;;;;;;;;;;;23.30;71.60;;;;;;6099483;23;848;-66
2022/08/18 06:42:15;;;;;;;;;;;23.30;71.70;;;;;;6098837;23;1885;-66
2022/08/18 06:44:45;;;;;;;;;;;23.30;71.60;;;;;;6098812;23;847;-66
2022/08/18 06:47:11;;;;;;;;;;;23.30;71.70;;;;;;6124260;23;812;-65
2022/08/18 06:49:39;;;;;;;;;;;23.30;71.70;;;;;;6124788;23;991;-65
2022/08/18 06:52:20;;;;;;;;;;;23.40;71.70;;;;;;6099352;23;1201;-65
2022/08/18 06:54:46;;;;;;;;;;;23.30;72.20;;;;;;6125462;23;788;-65
2022/08/18 06:57:27;;;;;;;;;;;23.40;71.70;;;;;;6125034;23;821;-66
2022/08/18 06:59:54;;;;;;;;;;;23.30;71.70;;;;;;6124975;23;931;-65
2022/08/18 07:02:21;;;;;;;;;;;23.30;71.70;;;;;;6098992;23;1897;-65
2022/08/18 07:04:59;;;;;;;;;;;23.30;71.70;;;;;;6125330;23;924;-65
2022/08/18 07:07:32;;;;;;;;;;;23.40;71.70;;;;;;6098857;23;1326;-66
2022/08/18 07:09:58;;;;;;;;;;;23.40;71.70;;;;;;6099762;23;777;-66
2022/08/18 07:12:25;;;;;;;;;;;23.30;71.60;;;;;;6099869;23;1675;-66
2022/08/18 07:14:55;;;;;;;;;;;23.30;71.60;;;;;;6100840;23;805;-66
2022/08/18 07:17:27;;;;;;;;;;;23.30;71.60;;;;;;6100732;23;911;-66
2022/08/18 07:19:54;;;;;;;;;;;23.30;71.60;;;;;;6101342;23;809;-66
2022/08/18 07:22:19;;;;;;;;;;;23.40;71.70;;;;;;6101006;23;1893;-66
2022/08/18 07:24:45;;;;;;;;;;;23.30;71.60;;;;;;6126431;23;908;-66
2022/08/18 07:27:12;;;;;;;;;;;23.30;71.70;;;;;;6100262;23;805;-66
2022/08/18 07:29:57;;;;;;;;;;;23.30;71.70;;;;;;6101001;23;935;-66
2022/08/18 07:32:23;;;;;;;;;;;23.30;71.70;;;;;;6101126;23;1250;-66
2022/08/18 07:34:50;;;;;;;;;;;23.30;71.70;;;;;;6100698;23;1054;-66
2022/08/18 07:37:18;;;;;;;;;;;23.30;71.60;;;;;;6100411;23;829;-66
2022/08/18 07:39:45;;;;;;;;;;;23.30;71.70;;;;;;6101476;23;800;-66
2022/08/18 07:42:31;;;;;;;;;;;23.30;71.60;;;;;;6100555;23;1889;-66
2022/08/18 07:44:59;;;;;;;;;;;23.30;71.70;;;;;;6066938;23;1120;-65
2022/08/18 07:47:53;;;;;;;;;;;23.30;71.60;;;;;;6126342;23;835;-65
2022/08/18 07:50:19;;;;;;;;;;;23.30;71.60;;;;;;6101599;23;1404;-66
2022/08/18 07:52:50;;;;;;;;;;;23.30;71.60;;;;;;6101131;23;1232;-67
2022/08/18 07:55:24;;;;;;;;;;;23.30;71.60;;;;;;6100533;23;919;-67
2022/08/18 07:57:55;;;;;;;;;;;23.30;71.60;;;;;;6126360;23;923;-66
2022/08/18 08:00:22;;;;;;;;;;;23.30;71.60;;;;;;6100712;23;888;-66
2022/08/18 08:02:51;;;;;;;;;;;23.30;71.60;;;;;;6126415;23;1940;-65
2022/08/18 08:05:16;;;;;;;;;;;23.30;71.60;;;;;;6100839;23;950;-65
2022/08/18 08:07:44;;;;;;;;;;;23.30;71.70;;;;;;6125772;23;797;-65
2022/08/18 08:10:29;;;;;;;;;;;23.30;72.40;;;;;;6100973;23;844;-65
2022/08/18 08:13:05;;;;;;;;;;;23.30;71.60;;;;;;6126419;23;1204;-65
2022/08/18 08:15:32;;;;;;;;;;;23.40;71.70;;;;;;6100107;23;1006;-65
2022/08/18 08:18:03;;;;;;;;;;;23.30;71.60;;;;;;6126572;23;840;-66
2022/08/18 08:20:35;;;;;;;;;;;23.30;71.60;;;;;;6100385;23;1220;-65
2022/08/18 08:23:01;;;;;;;;;;;23.30;71.60;;;;;;6099915;23;1933;-65
2022/08/18 08:25:39;;;;;;;;;;;23.30;71.60;;;;;;6125565;23;776;-65
2022/08/18 08:28:09;;;;;;;;;;;23.30;71.60;;;;;;6100602;23;991;-66
2022/08/18 08:30:37;;;;;;;;;;;23.30;71.60;;;;;;6100753;23;773;-66
2022/08/18 08:33:08;;;;;;;;;;;23.30;71.60;;;;;;6099879;23;1196;-66
2022/08/18 08:35:44;;;;;;;;;;;23.30;71.60;;;;;;6125327;23;1014;-66
2022/08/18 08:38:14;;;;;;;;;;;23.40;71.70;;;;;;6126418;23;820;-67
2022/08/18 08:41:02;;;;;;;;;;;23.40;71.70;;;;;;6100647;23;875;-67
2022/08/18 08:43:34;;;;;;;;;;;23.30;71.60;;;;;;6125777;23;1897;-67
2022/08/18 08:46:00;;;;;;;;;;;23.30;71.60;;;;;;6099709;23;848;-68
2022/08/18 08:48:27;;;;;;;;;;;23.30;71.60;;;;;;6125618;23;809;-68
2022/08/18 08:50:52;;;;;;;;;;;23.30;71.60;;;;;;6100502;23;856;-67
2022/08/18 08:53:19;;;;;;;;;;;23.30;71.60;;;;;;6125251;23;1278;-67
2022/08/18 08:55:47;;;;;;;;;;;23.30;71.60;;;;;;6099492;23;1058;-68
2022/08/18 08:58:12;;;;;;;;;;;23.30;71.60;;;;;;6100421;23;832;-68
2022/08/18 09:00:38;;;;;;;;;;;23.30;71.60;;;;;;6126124;23;805;-67
2022/08/18 09:03:12;;;;;;;;;;;23.30;71.60;;;;;;6125855;23;1937;-65
2022/08/18 09:05:40;;;;;;;;;;;23.30;71.60;;;;;;6125569;23;845;-66
2022/08/18 09:08:05;;;;;;;;;;;23.30;71.60;;;;;;6100282;23;912;-67
2022/08/18 09:10:39;;;;;;;;;;;23.40;71.70;;;;;;6126314;23;797;-66
2022/08/18 09:13:07;;;;;;;;;;;23.40;71.70;;;;;;6099540;23;1314;-66
2022/08/18 09:15:42;;;;;;;;;;;23.40;71.70;;;;;;6125476;23;884;-66
2022/08/18 09:18:29;;;;;;;;;;;23.40;71.80;;;;;;6099984;23;952;-66
2022/08/18 09:21:09;;;;;;;;;;;23.30;71.60;;;;;;6100051;23;979;-66
2022/08/18 09:23:42;;;;;;;;;;;23.30;71.60;;;;;;6125153;23;1928;-66
2022/08/18 09:26:20;;;;;;;;;;;23.30;71.70;;;;;;6098758;23;1007;-67
2022/08/18 09:28:55;;;;;;;;;;;23.40;71.70;;;;;;6100088;23;781;-67
2022/08/18 09:31:20;;;;;;;;;;;23.30;71.60;;;;;;6100418;23;836;-66
2022/08/18 09:33:55;;;;;;;;;;;23.30;71.60;;;;;;6099623;23;1181;-66
2022/08/18 09:36:27;;;;;;;;;;;23.40;71.70;;;;;;6099005;23;808;-66
2022/08/18 09:41:59;;;;;;;;;;;23.30;71.60;;;;;;6125651;23;1944;-66
2022/08/18 09:44:44;;;;;;;;;;;23.30;71.60;;;;;;6124578;23;1016;-66
2022/08/18 09:47:09;;;;;;;;;;;23.40;71.70;;;;;;6124832;23;871;-66
2022/08/18 09:49:54;;;;;;;;;;;23.30;71.60;;;;;;6125889;23;856;-66
2022/08/18 09:52:20;;;;;;;;;;;23.40;71.70;;;;;;6075859;23;1290;-67
2022/08/18 09:54:59;;;;;;;;;;;23.40;71.70;;;;;;6125664;23;796;-67
2022/08/18 09:57:34;;;;;;;;;;;23.30;71.60;;;;;;6125114;23;872;-67
2022/08/18 10:00:02;;;;;;;;;;;23.30;71.50;;;;;;6125152;23;1067;-67
2022/08/18 10:02:28;;;;;;;;;;;23.40;71.60;;;;;;6125553;23;1905;-66
2022/08/18 10:05:14;;;;;;;;;;;23.30;71.60;;;;;;6125568;23;868;-66
2022/08/18 10:07:39;;;;;;;;;;;23.30;71.60;;;;;;6104082;23;1160;-67
2022/08/18 10:10:11;;;;;;;;;;;23.40;71.60;;;;;;6099845;23;892;-67
2022/08/18 10:12:36;;;;;;;;;;;23.40;71.60;;;;;;6099758;23;1204;-67
2022/08/18 10:15:08;;;;;;;;;;;23.40;71.60;;;;;;6125293;23;951;-66
2022/08/18 10:17:38;;;;;;;;;;;23.40;71.60;;;;;;6098099;23;844;-67
2022/08/18 10:20:13;;;;;;;;;;;23.40;71.70;;;;;;6125505;23;805;-67
2022/08/18 10:22:42;;;;;;;;;;;23.40;71.70;;;;;;6099296;23;1893;-67
2022/08/18 10:25:10;;;;;;;;;;;23.40;71.70;;;;;;6124059;23;820;-67
2022/08/18 10:27:38;;;;;;;;;;;23.40;71.60;;;;;;6098970;23;860;-67
2022/08/18 10:30:24;;;;;;;;;;;23.40;71.70;;;;;;6123800;23;1197;-67
2022/08/18 10:32:49;;;;;;;;;;;23.40;71.60;;;;;;6122355;23;1299;-67
2022/08/18 10:35:33;;;;;;;;;;;23.40;71.60;;;;;;6124549;23;1121;-67
2022/08/18 10:37:59;;;;;;;;;;;23.40;71.60;;;;;;6123865;23;848;-67
2022/08/18 10:40:24;;;;;;;;;;;23.40;71.60;;;;;;6124676;23;924;-67
2022/08/18 10:42:51;;;;;;;;;;;23.40;71.60;;;;;;6123646;23;1934;-67
2022/08/18 10:45:24;;;;;;;;;;;23.40;71.60;;;;;;6099053;23;841;-69
2022/08/18 10:48:04;;;;;;;;;;;23.40;71.60;;;;;;6099604;23;920;-65
2022/08/18 10:50:37;;;;;;;;;;;23.40;71.60;;;;;;6126547;23;830;-69
2022/08/18 10:53:26;;;;;;;;;;;23.40;71.60;;;;;;6099877;23;1274;-67
2022/08/18 10:56:08;;;;;;;;;;;23.40;71.70;;;;;;6100139;23;1030;-69
2022/08/18 10:58:33;;;;;;;;;;;23.40;71.60;;;;;;6076981;23;1309;-68
2022/08/18 11:01:05;;;;;;;;;;;23.40;71.60;;;;;;6126086;23;812;-66
2022/08/18 11:03:39;;;;;;;;;;;23.40;71.60;;;;;;6100157;23;1937;-68
2022/08/18 11:06:05;;;;;;;;;;;23.40;72.40;;;;;;6099991;23;837;-68
2022/08/18 11:08:32;;;;;;;;;;;23.40;71.60;;;;;;6100057;23;841;-67
2022/08/18 11:11:04;;;;;;;;;;;23.40;71.60;;;;;;6100181;23;848;-66
2022/08/18 11:13:31;;;;;;;;;;;23.40;71.60;;;;;;6100184;23;1312;-66
2022/08/18 11:15:57;;;;;;;;;;;23.40;71.50;;;;;;6100146;23;971;-68
2022/08/18 11:18:41;;;;;;;;;;;23.40;71.50;;;;;;6126853;23;947;-69
2022/08/18 11:21:25;;;;;;;;;;;23.40;71.50;;;;;;6125825;23;832;-65
2022/08/18 11:24:05;;;;;;;;;;;23.40;71.50;;;;;;6125585;23;1940;-68
2022/08/18 11:26:33;;;;;;;;;;;23.40;71.50;;;;;;6125211;23;809;-67
2022/08/18 11:29:00;;;;;;;;;;;23.40;71.50;;;;;;6126251;23;864;-68
2022/08/18 11:31:25;;;;;;;;;;;23.40;71.40;;;;;;6125957;23;784;-66
2022/08/18 11:33:51;;;;;;;;;;;23.40;71.40;;;;;;6099622;23;1271;-66
2022/08/18 11:36:16;;;;;;;;;;;23.40;71.40;;;;;;6125575;23;849;-67
2022/08/18 11:38:54;;;;;;;;;;;23.40;72.10;;;;;;6100332;23;836;-67
2022/08/18 11:41:23;;;;;;;;;;;23.40;71.40;;;;;;6099752;23;872;-66
2022/08/18 11:43:54;;;;;;;;;;;23.40;71.40;;;;;;6100185;23;1885;-67
2022/08/18 11:46:19;;;;;;;;;;;23.40;71.50;;;;;;6100923;23;822;-67
2022/08/18 11:48:45;;;;;;;;;;;23.40;71.40;;;;;;6126974;23;1125;-67
2022/08/18 11:51:17;;;;;;;;;;;23.40;71.40;;;;;;6100397;23;1235;-67
2022/08/18 11:53:48;;;;;;;;;;;23.40;71.40;;;;;;6125678;23;1196;-67
2022/08/18 11:56:16;;;;;;;;;;;23.40;71.40;;;;;;6125017;23;983;-67
2022/08/18 11:58:44;;;;;;;;;;;23.40;71.40;;;;;;6125488;23;840;-67
2022/08/18 12:01:30;;;;;;;;;;;23.40;71.50;;;;;;6125878;23;817;-67
2022/08/18 12:03:57;;;;;;;;;;;23.40;71.50;;;;;;6125837;23;1184;-67
2022/08/18 12:06:25;;;;;;;;;;;23.40;71.50;;;;;;6100411;23;825;-67
2022/08/18 12:09:13;;;;;;;;;;;23.40;71.50;;;;;;6124396;23;857;-68
2022/08/18 12:11:48;;;;;;;;;;;23.40;71.40;;;;;;6099605;23;1318;-68
2022/08/18 12:14:17;;;;;;;;;;;23.40;71.50;;;;;;6099040;23;1035;-67
2022/08/18 12:16:42;;;;;;;;;;;23.40;71.40;;;;;;6124789;23;758;-68
2022/08/18 12:19:09;;;;;;;;;;;23.40;71.40;;;;;;6126183;23;892;-68
2022/08/18 12:21:38;;;;;;;;;;;23.40;71.50;;;;;;6100344;23;1888;-67
2022/08/18 12:24:04;;;;;;;;;;;23.40;71.40;;;;;;6099626;23;872;-68
2022/08/18 12:26:30;;;;;;;;;;;23.40;71.50;;;;;;6099879;23;789;-68
2022/08/18 12:28:55;;;;;;;;;;;23.40;71.50;;;;;;6125581;23;876;-68
2022/08/18 12:31:21;;;;;;;;;;;23.40;71.50;;;;;;6126269;23;908;-67
2022/08/18 12:33:46;;;;;;;;;;;23.40;71.50;;;;;;6126057;23;1167;-68
2022/08/18 12:36:12;;;;;;;;;;;23.40;71.50;;;;;;6125680;23;785;-67
2022/08/18 12:38:37;;;;;;;;;;;23.40;72.20;;;;;;6126025;23;848;-67
2022/08/18 12:41:04;;;;;;;;;;;23.40;71.50;;;;;;6125780;23;920;-67
2022/08/18 12:43:31;;;;;;;;;;;23.40;71.50;;;;;;6125576;23;1889;-67
2022/08/18 12:45:57;;;;;;;;;;;23.40;71.50;;;;;;6125770;23;849;-67
2022/08/18 12:48:22;;;;;;;;;;;23.40;71.50;;;;;;6126321;23;927;-66
2022/08/18 12:50:48;;;;;;;;;;;23.40;71.50;;;;;;6126355;23;995;-67
2022/08/18 12:53:13;;;;;;;;;;;23.40;71.40;;;;;;6125492;23;1281;-67
2022/08/18 12:55:40;;;;;;;;;;;23.40;71.40;;;;;;6124761;23;801;-67
2022/08/18 12:58:06;;;;;;;;;;;23.40;71.40;;;;;;6100205;23;849;-67
2022/08/18 13:00:32;;;;;;;;;;;23.40;71.40;;;;;;6126310;23;769;-67
2022/08/18 13:02:58;;;;;;;;;;;23.40;71.40;;;;;;6125759;23;1941;-67
2022/08/18 13:05:23;;;;;;;;;;;23.40;71.40;;;;;;6125651;23;848;-67
2022/08/18 13:07:49;;;;;;;;;;;23.40;71.40;;;;;;6125337;23;1010;-67
2022/08/18 13:10:15;;;;;;;;;;;23.40;71.40;;;;;;6099617;23;912;-66
2022/08/18 13:12:40;;;;;;;;;;;23.40;71.40;;;;;;6125447;23;1222;-66
2022/08/18 13:15:08;;;;;;;;;;;23.40;71.40;;;;;;6125828;23;820;-66
2022/08/18 13:17:35;;;;;;;;;;;23.40;71.40;;;;;;6122797;23;887;-66
2022/08/18 13:20:01;;;;;;;;;;;23.40;71.40;;;;;;6126121;23;817;-66
2022/08/18 13:22:28;;;;;;;;;;;23.40;71.40;;;;;;6099588;23;1893;-66
2022/08/18 13:24:53;;;;;;;;;;;23.40;71.40;;;;;;6124822;23;888;-66
2022/08/18 13:27:19;;;;;;;;;;;23.40;71.40;;;;;;6096782;23;1188;-68
2022/08/18 13:29:44;;;;;;;;;;;23.40;71.40;;;;;;6124876;23;876;-66
2022/08/18 13:32:09;;;;;;;;;;;23.40;71.40;;;;;;6124879;23;1208;-66
2022/08/18 13:34:35;;;;;;;;;;;23.40;71.40;;;;;;6124870;23;1054;-65
2022/08/18 13:37:00;;;;;;;;;;;23.40;71.40;;;;;;6123792;23;780;-66
2022/08/18 13:39:27;;;;;;;;;;;23.40;71.40;;;;;;6124761;23;998;-66
2022/08/18 13:41:53;;;;;;;;;;;23.40;71.40;;;;;;6123903;23;1889;-67
2022/08/18 13:44:18;;;;;;;;;;;23.40;71.40;;;;;;6098832;23;761;-66
2022/08/18 13:46:44;;;;;;;;;;;23.40;71.40;;;;;;6123829;23;979;-66
2022/08/18 13:49:14;;;;;;;;;;;23.40;71.40;;;;;;6098983;23;789;-66
2022/08/18 13:51:40;;;;;;;;;;;23.40;71.40;;;;;;6098662;23;1195;-67
2022/08/18 13:54:06;;;;;;;;;;;23.40;71.40;;;;;;6098802;23;876;-66
2022/08/18 13:56:31;;;;;;;;;;;23.40;71.40;;;;;;6123403;23;1023;-66
2022/08/18 13:58:57;;;;;;;;;;;23.40;71.40;;;;;;6124698;23;816;-66
2022/08/18 14:01:22;;;;;;;;;;;23.40;71.40;;;;;;6124493;23;889;-66
2022/08/18 14:03:48;;;;;;;;;;;23.40;71.40;;;;;;6124375;23;1893;-66
2022/08/18 14:06:14;;;;;;;;;;;23.40;71.40;;;;;;6124151;23;773;-65
2022/08/18 14:08:39;;;;;;;;;;;23.40;71.40;;;;;;6123992;23;820;-65
2022/08/18 14:11:05;;;;;;;;;;;23.40;71.40;;;;;;6124441;23;829;-65
2022/08/18 14:13:31;;;;;;;;;;;23.40;71.40;;;;;;6124757;23;1203;-66
2022/08/18 14:15:57;;;;;;;;;;;23.40;71.40;;;;;;6125278;23;789;-66
2022/08/18 14:18:23;;;;;;;;;;;23.40;71.70;;;;;;6125121;23;996;-65
2022/08/18 14:29:01;;;;;;;;;;;23.40;71.60;;;;;;6120659;23;643;-67
2022/08/18 14:31:26;;;;;;;;;;;23.40;71.70;;;;;;6124371;23;872;-66
2022/08/18 14:33:52;;;;;;;;;;;23.40;71.80;;;;;;6123542;23;1258;-66
2022/08/18 14:36:17;;;;;;;;;;;23.40;71.90;;;;;;6121867;23;876;-65
2022/08/18 14:38:43;;;;;;;;;;;23.50;71.90;;;;;;6096607;23;841;-66
2022/08/18 14:41:09;;;;;;;;;;;23.40;71.80;;;;;;6125089;23;793;-66
2022/08/18 14:43:34;;;;;;;;;;;23.40;71.80;;;;;;6098905;23;2177;-66
2022/08/18 14:46:00;;;;;;;;;;;23.40;71.80;;;;;;6124223;23;790;-66
2022/08/18 14:48:26;;;;;;;;;;;23.40;71.70;;;;;;6125360;23;809;-66
2022/08/18 14:50:54;;;;;;;;;;;23.40;71.70;;;;;;6099039;23;884;-66
2022/08/18 14:53:20;;;;;;;;;;;23.40;71.70;;;;;;6089124;23;1295;-66
2022/08/18 14:55:46;;;;;;;;;;;23.40;71.80;;;;;;6095454;23;1067;-66
2022/08/18 14:58:12;;;;;;;;;;;23.50;71.80;;;;;;6123453;23;844;-66
2022/08/18 15:00:37;;;;;;;;;;;23.40;71.70;;;;;;6124167;23;963;-66
2022/08/18 15:03:05;;;;;;;;;;;23.40;71.70;;;;;;6123374;23;1889;-66
2022/08/18 15:05:32;;;;;;;;;;;23.50;71.80;;;;;;6124432;23;819;-66
2022/08/18 15:07:57;;;;;;;;;;;23.40;71.70;;;;;;6099221;23;828;-66
2022/08/18 15:10:23;;;;;;;;;;;23.40;71.70;;;;;;6124853;23;916;-66
2022/08/18 15:12:48;;;;;;;;;;;23.40;71.60;;;;;;6099131;23;1296;-66